Time;durP1;ratioP1;P1;durP2;ratioP2;P2;SDS_P1;SDS_P2;PMS_P1;PMS_P2;Temp;Humidity;BMP_temperature;BMP_pressure;BME280_temperature;BME280_humidity;BME280_pressure;Samples;Min_cycle;Max_cycle;Signal;HPM_P1;HPM_P2
2021/09/01 00:00:38;;;;;;;12.02;6.30;;;12.00;99.90;;;;;;7370004;19;20026;-60
2021/09/01 00:03:03;;;;;;;11.75;6.03;;;11.90;99.90;;;;;;7366571;19;20029;-60
2021/09/01 00:05:29;;;;;;;9.98;6.22;;;11.90;99.90;;;;;;7371687;19;20893;-60
2021/09/01 00:07:55;;;;;;;14.45;6.88;;;11.90;99.90;;;;;;7368594;19;20019;-60
2021/09/01 00:10:20;;;;;;;10.48;6.15;;;11.80;99.90;;;;;;7368647;19;20560;-60
2021/09/01 00:12:46;;;;;;;18.38;6.60;;;11.80;99.90;;;;;;7369469;19;20018;-60
2021/09/01 00:15:11;;;;;;;12.98;6.13;;;11.80;99.90;;;;;;7368322;19;20019;-60
2021/09/01 00:17:37;;;;;;;14.27;6.63;;;11.80;99.90;;;;;;7368961;19;20053;-60
2021/09/01 00:20:02;;;;;;;13.43;7.45;;;11.70;99.90;;;;;;7371142;19;20019;-60
2021/09/01 00:22:28;;;;;;;17.08;8.98;;;11.60;99.90;;;;;;7368785;19;20022;-61
2021/09/01 00:24:53;;;;;;;14.15;7.95;;;11.60;99.90;;;;;;7367509;19;20014;-60
2021/09/01 00:27:19;;;;;;;13.52;7.25;;;11.60;99.90;;;;;;7370294;19;20011;-60
2021/09/01 00:29:45;;;;;;;14.50;7.55;;;11.60;99.90;;;;;;7371204;19;20778;-60
2021/09/01 00:32:10;;;;;;;16.02;7.07;;;11.60;99.90;;;;;;7370060;19;20011;-60
2021/09/01 00:34:36;;;;;;;11.00;6.78;;;11.60;99.90;;;;;;7375755;19;20633;-60
2021/09/01 00:37:01;;;;;;;13.10;7.70;;;11.60;99.90;;;;;;7375963;19;20019;-60
2021/09/01 00:39:27;;;;;;;13.40;7.70;;;11.60;99.90;;;;;;7377799;19;20014;-60
2021/09/01 00:41:53;;;;;;;12.35;6.72;;;11.70;99.90;;;;;;7378396;19;20023;-60
2021/09/01 00:44:18;;;;;;;11.75;8.05;;;11.70;99.90;;;;;;7374727;19;20022;-60
2021/09/01 00:46:44;;;;;;;12.80;8.23;;;11.70;99.90;;;;;;7375007;19;20025;-60
2021/09/01 00:49:09;;;;;;;13.60;7.50;;;11.70;99.90;;;;;;7376480;19;20023;-60
2021/09/01 00:51:35;;;;;;;17.17;7.78;;;11.60;99.90;;;;;;7373777;19;20917;-60
2021/09/01 00:54:00;;;;;;;10.90;7.03;;;11.70;99.90;;;;;;7377010;19;20011;-60
2021/09/01 00:56:26;;;;;;;12.80;7.68;;;11.60;99.90;;;;;;7375031;19;20022;-60
2021/09/01 00:58:51;;;;;;;14.73;7.90;;;11.60;99.90;;;;;;7373971;19;20032;-60
2021/09/01 01:01:17;;;;;;;14.07;7.88;;;11.60;99.90;;;;;;7367716;19;20014;-60
2021/09/01 01:03:42;;;;;;;15.75;8.40;;;11.70;99.90;;;;;;7368654;19;20022;-60
2021/09/01 01:06:08;;;;;;;16.50;8.70;;;11.60;99.90;;;;;;7375948;19;20018;-60
2021/09/01 01:08:33;;;;;;;12.57;7.85;;;11.60;99.90;;;;;;7372110;19;20010;-60
2021/09/01 01:10:59;;;;;;;13.85;7.93;;;11.70;99.90;;;;;;7375258;19;20014;-60
2021/09/01 01:13:24;;;;;;;12.15;7.80;;;11.60;99.90;;;;;;7372549;19;20014;-60
2021/09/01 01:15:50;;;;;;;13.82;7.70;;;11.60;99.90;;;;;;7374436;19;20022;-60
2021/09/01 01:18:15;;;;;;;13.45;7.80;;;11.60;99.90;;;;;;7375344;19;20015;-60
2021/09/01 01:20:41;;;;;;;15.48;7.65;;;11.60;99.90;;;;;;7373739;19;20022;-60
2021/09/01 01:23:06;;;;;;;13.00;8.02;;;11.60;99.90;;;;;;7371200;19;20014;-60
2021/09/01 01:25:32;;;;;;;13.50;8.25;;;11.60;99.90;;;;;;7376772;19;20015;-60
2021/09/01 01:27:57;;;;;;;18.48;7.18;;;11.50;99.90;;;;;;7372843;19;20019;-60
2021/09/01 01:30:23;;;;;;;12.43;7.80;;;11.50;99.90;;;;;;7375386;19;20758;-60
2021/09/01 01:32:49;;;;;;;12.10;7.82;;;11.50;99.90;;;;;;7374261;19;20944;-60
2021/09/01 01:35:15;;;;;;;14.82;7.47;;;11.40;99.90;;;;;;7376158;19;20038;-60
2021/09/01 01:37:40;;;;;;;14.93;8.00;;;11.40;99.90;;;;;;7372972;19;20089;-60
2021/09/01 01:40:06;;;;;;;17.95;8.13;;;11.40;99.90;;;;;;7374952;19;20137;-60
2021/09/01 01:42:31;;;;;;;16.58;8.73;;;11.40;99.90;;;;;;7374228;19;20577;-60
2021/09/01 01:44:57;;;;;;;17.98;8.23;;;11.40;99.90;;;;;;7372078;19;20015;-60
2021/09/01 01:47:22;;;;;;;20.25;8.82;;;11.40;99.90;;;;;;7374923;19;20021;-60
2021/09/01 01:49:48;;;;;;;20.05;9.38;;;11.50;99.90;;;;;;7373679;19;20014;-61
2021/09/01 01:52:13;;;;;;;15.45;9.52;;;11.50;99.90;;;;;;7373222;19;20871;-60
2021/09/01 01:54:39;;;;;;;14.13;9.40;;;11.50;99.90;;;;;;7377192;19;20019;-60
2021/09/01 01:57:04;;;;;;;17.50;9.13;;;11.60;99.90;;;;;;7371981;19;20034;-60
2021/09/01 01:59:30;;;;;;;18.00;9.45;;;11.60;99.90;;;;;;7376271;19;20707;-60
2021/09/01 02:01:56;;;;;;;16.63;9.98;;;11.70;99.90;;;;;;7375563;19;20267;-60
2021/09/01 02:04:21;;;;;;;20.10;10.07;;;11.70;99.90;;;;;;7374238;19;20031;-60
2021/09/01 02:06:47;;;;;;;19.98;10.45;;;11.70;99.90;;;;;;7375540;19;20578;-60
2021/09/01 02:09:12;;;;;;;19.02;11.23;;;11.70;99.90;;;;;;7373681;19;20022;-60
2021/09/01 02:11:38;;;;;;;19.75;10.48;;;11.80;99.90;;;;;;7375470;19;20014;-60
2021/09/01 02:14:03;;;;;;;19.50;10.63;;;11.80;99.90;;;;;;7374599;19;20019;-60
2021/09/01 02:16:29;;;;;;;22.38;11.45;;;11.80;99.90;;;;;;7374346;19;20022;-60
2021/09/01 02:18:55;;;;;;;21.05;11.32;;;11.80;99.90;;;;;;7373082;19;20529;-60
2021/09/01 02:21:20;;;;;;;19.58;11.20;;;12.00;99.90;;;;;;7372606;19;20023;-60
2021/09/01 02:23:46;;;;;;;17.08;10.50;;;11.80;99.90;;;;;;7374178;19;20022;-60
2021/09/01 02:26:12;;;;;;;23.10;10.60;;;11.80;99.90;;;;;;7372248;19;20022;-60
2021/09/01 02:28:37;;;;;;;21.88;10.93;;;11.80;99.90;;;;;;7368355;19;21220;-60
2021/09/01 02:31:03;;;;;;;17.40;10.93;;;11.80;99.90;;;;;;7372939;19;20018;-60
2021/09/01 02:33:28;;;;;;;19.30;10.52;;;11.80;99.90;;;;;;7371678;19;20086;-60
2021/09/01 02:35:54;;;;;;;21.00;10.90;;;11.80;99.90;;;;;;7373731;19;20022;-60
2021/09/01 02:38:19;;;;;;;21.63;11.75;;;11.80;99.90;;;;;;7374181;19;20018;-60
2021/09/01 02:40:45;;;;;;;22.48;11.52;;;11.80;99.90;;;;;;7372745;19;20059;-60
2021/09/01 02:43:10;;;;;;;18.58;10.88;;;11.80;99.90;;;;;;7371536;19;20035;-60
2021/09/01 02:45:36;;;;;;;20.90;11.95;;;11.90;99.90;;;;;;7372983;19;20108;-60
2021/09/01 02:48:01;;;;;;;20.48;12.70;;;11.90;99.90;;;;;;7374526;19;20577;-60
2021/09/01 02:50:27;;;;;;;23.55;12.20;;;12.00;99.90;;;;;;7373364;19;20605;-60
2021/09/01 02:52:52;;;;;;;22.42;12.27;;;12.00;99.90;;;;;;7371652;19;20023;-60
2021/09/01 02:55:18;;;;;;;25.80;12.25;;;12.10;99.90;;;;;;7373784;19;20022;-60
2021/09/01 02:57:43;;;;;;;23.15;12.25;;;12.10;99.90;;;;;;7368649;19;20026;-60
2021/09/01 03:00:09;;;;;;;26.13;13.02;;;12.10;99.90;;;;;;7374115;19;20086;-60
2021/09/01 03:02:34;;;;;;;20.05;11.90;;;12.10;99.90;;;;;;7373108;19;20026;-60
2021/09/01 03:05:00;;;;;;;20.20;11.55;;;12.10;99.90;;;;;;7370939;19;20029;-60
2021/09/01 03:07:25;;;;;;;24.25;11.25;;;12.10;99.90;;;;;;7373286;19;20071;-60
2021/09/01 03:09:51;;;;;;;20.92;11.70;;;12.10;99.90;;;;;;7371708;19;20014;-60
2021/09/01 03:12:16;;;;;;;21.80;11.68;;;12.10;99.90;;;;;;7372328;19;20010;-60
2021/09/01 03:14:42;;;;;;;21.15;11.77;;;12.10;99.90;;;;;;7373300;19;20019;-60
2021/09/01 03:17:07;;;;;;;18.30;11.63;;;12.00;99.90;;;;;;7368382;19;20023;-60
2021/09/01 03:19:33;;;;;;;19.38;11.95;;;12.00;99.90;;;;;;7372514;19;20025;-60
2021/09/01 03:21:58;;;;;;;19.13;11.27;;;12.00;99.90;;;;;;7370741;19;20022;-60
2021/09/01 03:24:24;;;;;;;23.65;11.98;;;12.00;99.90;;;;;;7372793;19;20019;-60
2021/09/01 03:26:49;;;;;;;29.05;13.40;;;12.00;99.90;;;;;;7369382;19;20042;-60
2021/09/01 03:29:15;;;;;;;21.20;11.68;;;12.10;99.90;;;;;;7369937;19;20018;-60
2021/09/01 03:31:40;;;;;;;21.73;12.18;;;12.10;99.90;;;;;;7371910;19;20022;-60
2021/09/01 03:34:06;;;;;;;21.05;11.90;;;12.20;99.90;;;;;;7368951;19;20113;-60
2021/09/01 03:36:31;;;;;;;20.23;11.70;;;12.20;99.90;;;;;;7370982;19;20014;-60
2021/09/01 03:38:57;;;;;;;19.85;11.93;;;12.20;99.90;;;;;;7369822;19;20030;-60
2021/09/01 03:41:22;;;;;;;26.27;12.40;;;12.20;99.90;;;;;;7370021;19;20019;-60
2021/09/01 03:43:48;;;;;;;22.70;12.27;;;12.20;99.90;;;;;;7370655;19;20779;-60
2021/09/01 03:46:13;;;;;;;22.15;11.82;;;12.20;99.90;;;;;;7369974;19;20054;-61
2021/09/01 03:48:39;;;;;;;18.73;11.57;;;12.20;99.90;;;;;;7370591;19;20011;-60
2021/09/01 03:51:04;;;;;;;19.90;11.30;;;12.10;99.90;;;;;;7370438;19;20716;-60
2021/09/01 03:53:30;;;;;;;22.13;12.25;;;12.10;99.90;;;;;;7368695;19;20125;-61
2021/09/01 03:55:55;;;;;;;23.05;12.20;;;12.10;99.90;;;;;;7370820;19;20601;-60
2021/09/01 03:58:21;;;;;;;20.67;10.90;;;12.00;99.90;;;;;;7368629;19;20029;-60
2021/09/01 04:00:46;;;;;;;21.88;11.82;;;12.10;99.90;;;;;;7370287;19;20025;-60
2021/09/01 04:03:12;;;;;;;21.65;11.75;;;12.00;99.90;;;;;;7369011;19;20026;-60
2021/09/01 04:05:38;;;;;;;19.55;10.68;;;11.90;99.90;;;;;;7370560;19;20023;-60
2021/09/01 04:08:03;;;;;;;21.70;11.80;;;11.90;99.90;;;;;;7372269;19;20019;-60
2021/09/01 04:10:29;;;;;;;18.20;11.48;;;11.90;99.90;;;;;;7375992;19;20022;-60
2021/09/01 04:12:54;;;;;;;21.92;11.63;;;11.90;99.90;;;;;;7374469;19;20025;-60
2021/09/01 04:15:20;;;;;;;23.20;11.57;;;11.90;99.90;;;;;;7377728;19;20097;-60
2021/09/01 04:17:45;;;;;;;22.48;12.50;;;11.90;99.90;;;;;;7372163;19;20776;-60
2021/09/01 04:20:11;;;;;;;28.35;12.00;;;12.00;99.90;;;;;;7378372;19;20078;-60
2021/09/01 04:22:36;;;;;;;23.98;12.68;;;12.00;99.90;;;;;;7374504;19;20018;-60
2021/09/01 04:25:02;;;;;;;22.40;11.18;;;12.00;99.90;;;;;;7377680;19;20126;-60
2021/09/01 04:27:27;;;;;;;22.42;11.20;;;12.10;99.90;;;;;;7373830;19;20014;-60
2021/09/01 04:29:53;;;;;;;24.30;12.63;;;12.10;99.90;;;;;;7377349;19;20785;-60
2021/09/01 04:32:18;;;;;;;23.63;12.13;;;12.10;99.90;;;;;;7378023;19;20033;-60
2021/09/01 04:34:44;;;;;;;20.63;11.95;;;12.00;99.90;;;;;;7375447;19;20738;-60
2021/09/01 04:37:09;;;;;;;21.35;12.00;;;12.10;99.90;;;;;;7375650;19;20026;-60
2021/09/01 04:39:35;;;;;;;24.02;12.68;;;12.10;99.90;;;;;;7375957;19;20010;-60
2021/09/01 04:42:00;;;;;;;22.42;11.88;;;12.10;99.90;;;;;;7376446;19;21061;-60
2021/09/01 04:44:26;;;;;;;21.70;12.13;;;12.10;99.90;;;;;;7379576;19;20019;-60
2021/09/01 04:46:51;;;;;;;24.33;11.93;;;12.10;99.90;;;;;;7377356;19;20093;-60
2021/09/01 04:49:17;;;;;;;19.00;11.13;;;12.10;99.90;;;;;;7377624;19;20035;-60
2021/09/01 04:51:42;;;;;;;22.23;12.68;;;12.20;99.90;;;;;;7375718;19;20025;-60
2021/09/01 04:54:08;;;;;;;22.60;12.35;;;12.10;99.90;;;;;;7377394;19;20036;-60
2021/09/01 04:56:33;;;;;;;20.17;11.63;;;12.10;99.90;;;;;;7375502;19;20090;-60
2021/09/01 04:58:59;;;;;;;21.42;12.48;;;12.20;99.90;;;;;;7374678;19;20029;-60
2021/09/01 05:01:24;;;;;;;21.05;11.88;;;12.20;99.90;;;;;;7376229;19;20022;-60
2021/09/01 05:03:50;;;;;;;23.40;11.80;;;12.20;99.90;;;;;;7375242;19;20025;-60
2021/09/01 05:06:15;;;;;;;21.88;12.65;;;12.30;99.90;;;;;;7376639;19;20018;-60
2021/09/01 05:08:41;;;;;;;27.15;13.75;;;12.30;99.90;;;;;;7376153;19;20011;-60
2021/09/01 05:11:06;;;;;;;27.77;12.20;;;12.40;99.90;;;;;;7373271;19;20018;-60
2021/09/01 05:13:32;;;;;;;24.65;12.77;;;12.40;99.90;;;;;;7374613;19;20043;-60
2021/09/01 05:15:57;;;;;;;23.77;12.23;;;12.40;99.90;;;;;;7374553;19;20014;-60
2021/09/01 05:18:23;;;;;;;22.40;12.50;;;12.40;99.90;;;;;;7374539;19;20022;-60
2021/09/01 05:20:48;;;;;;;24.75;12.30;;;12.40;99.90;;;;;;7376433;19;20022;-60
2021/09/01 05:23:14;;;;;;;21.85;11.60;;;12.40;99.90;;;;;;7373021;19;20019;-60
2021/09/01 05:25:39;;;;;;;21.35;12.27;;;12.50;99.90;;;;;;7376200;19;20022;-60
2021/09/01 05:28:05;;;;;;;23.55;13.18;;;12.60;99.90;;;;;;7373021;19;20018;-60
2021/09/01 05:30:30;;;;;;;24.33;12.40;;;12.70;99.90;;;;;;7375921;19;20250;-60
2021/09/01 05:32:56;;;;;;;29.05;12.68;;;12.80;99.90;;;;;;7374943;19;20038;-60
2021/09/01 05:35:21;;;;;;;31.58;13.95;;;13.00;99.90;;;;;;7375432;19;20035;-60
2021/09/01 05:37:47;;;;;;;29.08;12.95;;;13.00;99.90;;;;;;7374106;19;20010;-60
2021/09/01 05:40:12;;;;;;;24.05;13.27;;;13.10;99.90;;;;;;7373877;19;20014;-60
2021/09/01 05:42:38;;;;;;;21.35;12.27;;;13.00;99.90;;;;;;7376173;19;20018;-60
2021/09/01 05:45:03;;;;;;;24.15;12.10;;;13.10;99.90;;;;;;7376200;19;20022;-60
2021/09/01 05:47:29;;;;;;;21.00;12.27;;;13.20;99.90;;;;;;7372451;19;20473;-60
2021/09/01 05:49:54;;;;;;;21.67;12.35;;;13.20;99.90;;;;;;7376576;19;20018;-60
2021/09/01 05:52:20;;;;;;;23.13;12.80;;;13.20;99.90;;;;;;7373929;19;20035;-60
2021/09/01 05:54:46;;;;;;;23.63;12.20;;;13.20;99.90;;;;;;7375542;19;20014;-60
2021/09/01 05:57:11;;;;;;;18.63;11.00;;;13.30;99.90;;;;;;7374032;19;20946;-60
2021/09/01 05:59:37;;;;;;;22.90;12.20;;;13.30;99.90;;;;;;7374171;19;20014;-60
2021/09/01 06:02:02;;;;;;;21.48;11.82;;;13.40;99.90;;;;;;7373983;19;20042;-60
2021/09/01 06:04:28;;;;;;;24.63;11.90;;;13.50;99.90;;;;;;7375151;19;20007;-60
2021/09/01 06:06:53;;;;;;;25.92;12.32;;;13.60;99.90;;;;;;7376203;19;20014;-61
2021/09/01 06:09:18;;;;;;;22.70;11.07;;;13.50;99.90;;;;;;7374852;19;20014;-60
2021/09/01 06:11:45;;;;;;;24.48;11.57;;;13.60;99.90;;;;;;7371396;19;20089;-60
2021/09/01 06:14:11;;;;;;;22.08;12.05;;;13.70;99.90;;;;;;7376812;19;20022;-61
2021/09/01 06:16:36;;;;;;;17.73;10.93;;;13.80;99.90;;;;;;7372609;19;20039;-60
2021/09/01 06:19:02;;;;;;;22.73;11.23;;;13.90;99.90;;;;;;7375472;19;20010;-61
2021/09/01 06:21:27;;;;;;;20.23;11.32;;;13.90;99.90;;;;;;7373754;19;20053;-60
2021/09/01 06:23:54;;;;;;;25.42;10.77;;;14.00;99.90;;;;;;7374294;19;20486;-60
2021/09/01 06:26:20;;;;;;;20.42;11.13;;;14.10;99.90;;;;;;7376175;19;20022;-60
2021/09/01 06:28:45;;;;;;;21.23;10.80;;;14.00;99.90;;;;;;7371187;19;20035;-61
2021/09/01 06:31:11;;;;;;;22.33;11.13;;;14.10;99.90;;;;;;7372264;19;20014;-61
2021/09/01 06:33:37;;;;;;;17.52;9.82;;;14.10;99.90;;;;;;7374100;19;20035;-60
2021/09/01 06:36:02;;;;;;;19.02;10.25;;;14.10;99.90;;;;;;7372769;19;20010;-60
2021/09/01 06:38:27;;;;;;;18.95;11.40;;;14.20;99.90;;;;;;7372870;19;20018;-60
2021/09/01 06:40:53;;;;;;;19.90;11.30;;;14.30;99.90;;;;;;7372171;19;20811;-61
2021/09/01 06:43:18;;;;;;;20.92;10.60;;;14.40;99.90;;;;;;7373760;19;20014;-60
2021/09/01 06:45:46;;;;;;;19.25;11.25;;;14.50;99.90;;;;;;7372883;19;20033;-61
2021/09/01 06:48:12;;;;;;;19.42;10.55;;;14.60;99.90;;;;;;7372842;19;20018;-60
2021/09/01 06:50:37;;;;;;;19.85;11.30;;;14.80;99.90;;;;;;7374205;19;20523;-60
2021/09/01 06:53:03;;;;;;;15.65;10.38;;;14.70;99.90;;;;;;7370372;19;20018;-61
2021/09/01 06:55:28;;;;;;;19.27;11.13;;;14.90;99.90;;;;;;7373826;19;20022;-60
2021/09/01 06:57:54;;;;;;;20.65;10.65;;;14.90;99.90;;;;;;7371030;19;20018;-60
2021/09/01 07:00:19;;;;;;;17.85;10.65;;;15.00;99.90;;;;;;7370343;19;20019;-60
2021/09/01 07:02:45;;;;;;;17.33;10.70;;;15.10;99.90;;;;;;7372690;19;20019;-60
2021/09/01 07:05:11;;;;;;;20.17;10.55;;;15.20;99.90;;;;;;7372135;19;20491;-60
2021/09/01 07:07:37;;;;;;;20.38;10.82;;;15.30;99.90;;;;;;7373355;19;20055;-60
2021/09/01 07:10:02;;;;;;;20.27;11.43;;;15.30;99.90;;;;;;7370014;19;20703;-61
2021/09/01 07:12:29;;;;;;;20.90;11.25;;;15.40;99.90;;;;;;7371678;19;20018;-60
2021/09/01 07:14:54;;;;;;;18.92;10.73;;;15.50;99.90;;;;;;7374149;19;20018;-60
2021/09/01 07:17:20;;;;;;;19.60;11.80;;;15.90;99.90;;;;;;7368061;19;20042;-61
2021/09/01 07:19:45;;;;;;;15.52;10.13;;;16.00;99.90;;;;;;7371668;19;20022;-60
2021/09/01 07:22:11;;;;;;;19.48;11.38;;;16.20;99.90;;;;;;7369562;19;20028;-61
2021/09/01 07:24:37;;;;;;;22.38;10.98;;;16.40;99.90;;;;;;7372401;19;20019;-61
2021/09/01 07:27:02;;;;;;;26.00;10.63;;;16.60;99.90;;;;;;7371374;19;20022;-61
2021/09/01 07:29:28;;;;;;;15.55;9.93;;;16.80;99.90;;;;;;7368177;19;20597;-61
2021/09/01 07:31:53;;;;;;;17.90;10.95;;;17.10;99.90;;;;;;7368242;19;20018;-61
2021/09/01 07:34:19;;;;;;;16.73;10.00;;;17.00;99.90;;;;;;7369240;19;20938;-61
2021/09/01 07:36:44;;;;;;;17.77;9.85;;;17.10;99.90;;;;;;7370779;19;20019;-61
2021/09/01 07:39:10;;;;;;;18.02;9.95;;;17.20;99.90;;;;;;7369260;19;20022;-61
2021/09/01 07:41:37;;;;;;;19.48;10.35;;;17.30;99.90;;;;;;7367578;19;20104;-61
2021/09/01 07:44:02;;;;;;;21.20;10.10;;;17.30;99.90;;;;;;7372767;19;20019;-61
2021/09/01 07:46:28;;;;;;;22.75;10.52;;;17.30;99.90;;;;;;7369664;19;20026;-61
2021/09/01 07:48:57;;;;;;;24.27;11.00;;;17.40;99.90;;;;;;7370868;19;20018;-61
2021/09/01 07:51:23;;;;;;;20.60;10.43;;;17.40;99.90;;;;;;7370950;19;20557;-61
2021/09/01 07:53:48;;;;;;;18.48;10.18;;;17.50;99.90;;;;;;7367472;19;20086;-61
2021/09/01 07:56:14;;;;;;;20.15;10.13;;;17.40;99.90;;;;;;7370427;19;20025;-61
2021/09/01 07:58:39;;;;;;;23.45;10.63;;;17.30;99.90;;;;;;7370528;19;20043;-61
2021/09/01 08:01:05;;;;;;;22.90;10.23;;;17.30;99.90;;;;;;7369779;19;21067;-61
2021/09/01 08:03:32;;;;;;;17.52;10.43;;;17.20;99.90;;;;;;7369743;19;20022;-61
2021/09/01 08:05:57;;;;;;;21.50;10.65;;;17.20;99.90;;;;;;7370744;19;20143;-61
2021/09/01 08:08:23;;;;;;;23.55;11.27;;;17.20;99.90;;;;;;7370212;19;20082;-61
2021/09/01 08:10:48;;;;;;;24.63;12.10;;;17.30;99.90;;;;;;7373510;19;20043;-61
2021/09/01 08:13:14;;;;;;;21.52;10.30;;;17.40;99.90;;;;;;7374087;19;20859;-61
2021/09/01 08:15:39;;;;;;;21.10;11.55;;;17.40;99.90;;;;;;7375048;19;20490;-61
2021/09/01 08:18:05;;;;;;;22.23;10.50;;;17.40;99.90;;;;;;7371507;19;20023;-62
2021/09/01 08:20:30;;;;;;;17.45;9.25;;;17.50;99.90;;;;;;7372935;19;20023;-61
2021/09/01 08:22:56;;;;;;;19.67;9.70;;;17.70;99.90;;;;;;7368193;19;20019;-60
2021/09/01 08:25:21;;;;;;;18.17;10.00;;;17.80;99.90;;;;;;7371034;19;20860;-61
2021/09/01 08:27:47;;;;;;;20.80;10.65;;;18.00;99.90;;;;;;7370141;19;20510;-61
2021/09/01 08:30:12;;;;;;;17.25;9.68;;;17.90;99.90;;;;;;7368335;19;20015;-61
2021/09/01 08:32:38;;;;;;;20.20;10.13;;;17.80;99.90;;;;;;7368230;19;20112;-61
2021/09/01 08:35:04;;;;;;;24.92;11.25;;;17.80;99.90;;;;;;7367394;19;20062;-61
2021/09/01 08:37:29;;;;;;;16.80;9.82;;;18.10;99.90;;;;;;7363827;19;20102;-61
2021/09/01 08:39:55;;;;;;;35.55;20.08;;;18.10;99.90;;;;;;7365769;19;20022;-61
2021/09/01 08:42:20;;;;;;;17.92;9.77;;;18.00;99.90;;;;;;7365214;19;20014;-61
2021/09/01 08:44:46;;;;;;;23.15;12.05;;;18.30;99.90;;;;;;7368814;19;20022;-62
2021/09/01 08:47:11;;;;;;;23.45;11.00;;;18.10;99.90;;;;;;7367488;19;20839;-61
2021/09/01 08:49:36;;;;;;;21.75;10.13;;;18.10;99.90;;;;;;7368683;19;20015;-61
2021/09/01 08:52:02;;;;;;;22.45;9.50;;;18.30;99.90;;;;;;7367645;19;20468;-61
2021/09/01 08:54:27;;;;;;;24.52;10.32;;;18.60;99.90;;;;;;7370141;19;20097;-61
2021/09/01 08:56:53;;;;;;;20.77;10.10;;;18.60;99.90;;;;;;7372988;19;20950;-61
2021/09/01 08:59:18;;;;;;;19.00;9.32;;;18.80;99.90;;;;;;7371184;19;20105;-61
2021/09/01 09:01:44;;;;;;;30.17;10.63;;;18.80;99.90;;;;;;7376827;19;20894;-61
2021/09/01 09:04:09;;;;;;;40.00;12.50;;;18.90;99.90;;;;;;7375175;19;20023;-61
2021/09/01 09:06:35;;;;;;;20.17;9.57;;;18.90;99.90;;;;;;7378969;19;20661;-61
2021/09/01 09:09:00;;;;;;;20.63;10.25;;;19.00;99.90;;;;;;7377445;19;20393;-61
2021/09/01 09:11:26;;;;;;;21.50;8.75;;;19.10;99.90;;;;;;7374772;19;20026;-61
2021/09/01 09:13:52;;;;;;;23.88;11.27;;;19.10;99.90;;;;;;7376669;19;20078;-61
2021/09/01 09:16:17;;;;;;;18.80;8.02;;;19.40;99.90;;;;;;7374734;19;20483;-61
2021/09/01 09:18:43;;;;;;;15.68;7.15;;;19.70;99.90;;;;;;7376259;19;20025;-61
2021/09/01 09:21:09;;;;;;;14.48;7.70;;;19.70;99.90;;;;;;7373992;19;20044;-63
2021/09/01 09:23:34;;;;;;;13.85;7.90;;;19.60;99.90;;;;;;7369036;19;20018;-63
2021/09/01 09:26:00;;;;;;;20.40;7.75;;;19.60;99.90;;;;;;7376596;19;20109;-63
2021/09/01 09:28:25;;;;;;;22.35;7.93;;;19.80;99.90;;;;;;7371191;19;20086;-63
2021/09/01 09:30:51;;;;;;;16.63;7.32;;;19.60;99.90;;;;;;7375261;19;20293;-63
2021/09/01 09:33:16;;;;;;;13.73;7.65;;;19.40;99.90;;;;;;7373518;19;20019;-60
2021/09/01 09:35:42;;;;;;;12.73;7.70;;;19.40;99.90;;;;;;7374786;19;20019;-61
2021/09/01 09:38:07;;;;;;;23.35;8.95;;;19.20;99.90;;;;;;7372553;19;20039;-60
2021/09/01 09:40:33;;;;;;;21.77;8.02;;;19.00;99.90;;;;;;7374142;19;20018;-60
2021/09/01 09:42:58;;;;;;;18.90;8.65;;;19.00;99.90;;;;;;7371373;19;20030;-60
2021/09/01 09:45:24;;;;;;;19.10;6.95;;;18.80;99.90;;;;;;7373774;19;20039;-61
2021/09/01 09:47:49;;;;;;;24.40;7.82;;;18.90;99.90;;;;;;7372954;19;20034;-60
2021/09/01 09:50:15;;;;;;;24.27;7.10;;;19.50;99.90;;;;;;7375162;19;20750;-61
2021/09/01 09:52:40;;;;;;;24.70;7.10;;;19.80;99.90;;;;;;7370890;19;20567;-61
2021/09/01 09:55:06;;;;;;;20.02;6.63;;;19.90;99.90;;;;;;7376604;19;20019;-61
2021/09/01 09:57:32;;;;;;;12.55;6.20;;;19.60;99.90;;;;;;7371661;19;20026;-61
2021/09/01 09:59:57;;;;;;;9.30;5.68;;;19.60;99.90;;;;;;7374241;19;20015;-61
2021/09/01 10:02:22;;;;;;;22.88;6.57;;;19.30;99.90;;;;;;7373397;19;20018;-61
2021/09/01 10:04:48;;;;;;;33.42;7.93;;;19.00;99.90;;;;;;7374224;19;20129;-61
2021/09/01 10:07:13;;;;;;;39.95;8.43;;;18.70;99.90;;;;;;7375167;19;20607;-61
2021/09/01 10:09:39;;;;;;;57.10;18.52;;;18.50;99.90;;;;;;7373315;19;20799;-61
2021/09/01 10:12:04;;;;;;;27.90;9.00;;;18.50;99.90;;;;;;7374103;19;20026;-61
2021/09/01 10:14:30;;;;;;;21.67;6.70;;;18.30;99.90;;;;;;7375166;19;20466;-61
2021/09/01 10:16:55;;;;;;;26.00;6.70;;;18.20;99.90;;;;;;7370144;19;20022;-61
2021/09/01 10:19:21;;;;;;;14.25;6.22;;;18.10;99.90;;;;;;7375066;19;20018;-61
2021/09/01 10:21:46;;;;;;;13.35;6.60;;;18.10;99.90;;;;;;7371953;19;20022;-61
2021/09/01 10:24:12;;;;;;;13.18;6.97;;;18.00;99.90;;;;;;7375068;19;20018;-61
2021/09/01 10:26:37;;;;;;;13.00;7.07;;;17.90;99.90;;;;;;7375469;19;20058;-61
2021/09/01 10:29:03;;;;;;;8.90;6.38;;;17.80;99.90;;;;;;7370453;19;20522;-61
2021/09/01 10:31:31;;;;;;;9.63;6.55;;;17.80;99.90;;;;;;7372749;19;20085;-61
2021/09/01 10:34:00;;;;;;;13.60;8.52;;;17.70;99.90;;;;;;7372525;19;20039;-61
2021/09/01 10:36:26;;;;;;;13.90;6.90;;;17.60;99.90;;;;;;7373750;19;20023;-61
2021/09/01 10:38:51;;;;;;;12.18;6.97;;;17.50;99.90;;;;;;7372894;19;20081;-61
2021/09/01 10:41:17;;;;;;;11.15;7.43;;;17.50;99.90;;;;;;7371420;19;20058;-60
2021/09/01 10:43:45;;;;;;;10.40;6.85;;;17.50;99.90;;;;;;7371541;19;20390;-61
2021/09/01 10:46:11;;;;;;;11.55;7.15;;;17.80;99.90;;;;;;7371630;19;20022;-61
2021/09/01 10:48:36;;;;;;;17.60;8.52;;;17.80;99.90;;;;;;7372890;19;20035;-61
2021/09/01 10:51:02;;;;;;;13.48;7.55;;;17.90;99.90;;;;;;7372151;19;20022;-61
2021/09/01 10:53:27;;;;;;;16.00;7.47;;;17.70;99.90;;;;;;7371209;19;20104;-61
2021/09/01 10:55:53;;;;;;;14.70;7.55;;;17.80;99.90;;;;;;7372543;19;20047;-61
2021/09/01 10:58:19;;;;;;;12.63;7.10;;;18.10;99.90;;;;;;7369189;19;20097;-61
2021/09/01 11:00:44;;;;;;;12.90;6.13;;;18.40;99.90;;;;;;7373388;19;20039;-61
2021/09/01 11:03:10;;;;;;;12.55;7.28;;;18.70;99.90;;;;;;7371747;19;20805;-61
2021/09/01 11:05:35;;;;;;;10.93;6.60;;;19.10;99.90;;;;;;7370895;19;20543;-61
2021/09/01 11:08:01;;;;;;;13.05;6.20;;;19.00;99.90;;;;;;7373170;19;20658;-61
2021/09/01 11:10:27;;;;;;;11.73;6.65;;;19.10;99.90;;;;;;7370852;19;20030;-61
2021/09/01 11:12:53;;;;;;;11.52;6.70;;;18.90;99.90;;;;;;7370271;19;20035;-61
2021/09/01 11:15:18;;;;;;;14.98;7.40;;;19.00;99.90;;;;;;7373299;19;20030;-61
2021/09/01 11:17:44;;;;;;;10.07;6.40;;;19.40;99.90;;;;;;7367461;19;20050;-61
2021/09/01 11:20:10;;;;;;;16.27;8.15;;;19.40;99.90;;;;;;7371358;19;20974;-62
2021/09/01 11:22:37;;;;;;;10.43;6.22;;;19.40;99.90;;;;;;7369522;19;20029;-62
2021/09/01 11:25:02;;;;;;;26.95;12.57;;;19.30;99.90;;;;;;7372177;19;20014;-62
2021/09/01 11:27:28;;;;;;;21.90;10.43;;;19.30;99.90;;;;;;7370342;19;20657;-62
2021/09/01 11:29:53;;;;;;;20.40;9.80;;;19.60;99.90;;;;;;7370760;19;20023;-62
2021/09/01 11:32:19;;;;;;;14.68;7.38;;;19.60;99.90;;;;;;7371278;19;20503;-62
2021/09/01 11:34:44;;;;;;;13.80;8.32;;;19.70;99.90;;;;;;7369107;19;20050;-61
2021/09/01 11:37:10;;;;;;;10.57;6.10;;;19.60;99.90;;;;;;7370453;19;20022;-62
2021/09/01 11:39:35;;;;;;;15.13;7.05;;;19.60;99.90;;;;;;7371643;19;20051;-62
2021/09/01 11:42:01;;;;;;;12.20;6.57;;;19.50;99.90;;;;;;7368981;19;20026;-62
2021/09/01 11:44:26;;;;;;;12.88;6.15;;;19.30;99.90;;;;;;7371447;19;20046;-62
2021/09/01 11:46:51;;;;;;;11.20;6.25;;;19.40;99.90;;;;;;7369021;19;20050;-61
2021/09/01 11:49:17;;;;;;;9.90;5.60;;;19.30;99.90;;;;;;7370457;19;20594;-62
2021/09/01 11:51:42;;;;;;;10.48;6.35;;;19.30;99.90;;;;;;7371991;19;20027;-62
2021/09/01 11:54:08;;;;;;;14.25;6.55;;;19.40;99.90;;;;;;7367826;19;20016;-62
2021/09/01 11:56:34;;;;;;;11.25;6.32;;;19.50;99.90;;;;;;7370625;19;20022;-62
2021/09/01 11:58:59;;;;;;;9.35;5.75;;;19.50;99.90;;;;;;7368112;19;20094;-62
2021/09/01 12:01:25;;;;;;;13.65;6.57;;;19.40;99.90;;;;;;7370758;19;20018;-62
2021/09/01 12:03:50;;;;;;;11.25;5.85;;;19.70;99.90;;;;;;7371315;19;20629;-62
2021/09/01 12:06:16;;;;;;;10.80;5.97;;;19.90;99.90;;;;;;7369342;19;20026;-62
2021/09/01 12:08:42;;;;;;;10.55;5.68;;;20.20;99.90;;;;;;7370750;19;20547;-62
2021/09/01 12:11:07;;;;;;;8.73;5.13;;;20.60;99.90;;;;;;7367855;19;20029;-62
2021/09/01 12:13:33;;;;;;;7.57;5.13;;;20.60;99.90;;;;;;7369046;19;20025;-62
2021/09/01 12:15:58;;;;;;;11.90;6.22;;;20.50;99.90;;;;;;7368376;19;20014;-62
2021/09/01 12:18:24;;;;;;;7.85;5.05;;;20.30;99.90;;;;;;7367150;19;20039;-62
2021/09/01 12:20:49;;;;;;;7.95;5.00;;;20.30;99.90;;;;;;7366614;19;20022;-62